Time;durP1;ratioP1;P1;durP2;ratioP2;P2;SDS_P1;SDS_P2;PMS_P1;PMS_P2;Temp;Humidity;BMP_temperature;BMP_pressure;BME280_temperature;BME280_humidity;BME280_pressure;Samples;Min_cycle;Max_cycle;Signal;HPM_P1;HPM_P2
2023/10/31 00:03:45;;;;;;;5.50;1.27;;;;;;;19.98;52.82;99684.06;16115253;19;130315;-40
2023/10/31 00:09:08;;;;;;;3.72;1.02;;;;;;;19.96;53.04;99686.28;16115407;19;130713;-41
2023/10/31 00:14:30;;;;;;;3.42;0.90;;;;;;;19.95;52.70;99686.59;16111806;19;132100;-40
2023/10/31 00:19:52;;;;;;;5.50;0.80;;;;;;;19.92;52.94;99693.56;16117190;19;129878;-40
2023/10/31 00:25:14;;;;;;;2.60;0.80;;;;;;;19.89;53.18;99694.13;16114954;19;129495;-40
2023/10/31 00:30:36;;;;;;;4.15;0.88;;;;;;;19.88;52.84;99698.00;16115344;19;130507;-40
2023/10/31 00:35:58;;;;;;;2.40;0.88;;;;;;;19.87;52.84;99706.63;16114858;19;129600;-40
2023/10/31 00:41:20;;;;;;;4.47;0.80;;;;;;;19.84;53.01;99710.78;16111334;19;134854;-40
2023/10/31 00:46:43;;;;;;;2.40;0.95;;;;;;;19.82;53.04;99713.84;16109453;19;130886;-40
2023/10/31 00:52:05;;;;;;;4.30;0.85;;;;;;;19.80;52.71;99718.84;16110916;19;130740;-41
2023/10/31 00:57:27;;;;;;;3.13;0.95;;;;;;;19.78;53.01;99723.03;16113550;19;130369;-40
2023/10/31 01:02:49;;;;;;;2.08;0.80;;;;;;;19.76;52.59;99725.25;16106225;19;130763;-41
2023/10/31 01:08:11;;;;;;;7.75;0.98;;;;;;;19.74;52.53;99731.09;16111911;19;130387;-40
2023/10/31 01:13:33;;;;;;;2.53;0.70;;;;;;;19.73;52.89;99731.38;16107889;19;130747;-42
2023/10/31 01:18:55;;;;;;;3.47;0.98;;;;;;;19.69;52.56;99737.47;16115917;19;130787;-39
2023/10/31 01:24:17;;;;;;;5.22;0.80;;;;;;;19.67;52.85;99748.03;16110257;19;130954;-40
2023/10/31 01:29:39;;;;;;;2.13;0.90;;;;;;;19.67;52.92;99741.66;16113340;19;129338;-38
2023/10/31 01:35:01;;;;;;;3.28;0.95;;;;;;;19.64;52.74;99743.06;16110519;19;129922;-40
2023/10/31 01:40:23;;;;;;;3.10;0.90;;;;;;;19.62;52.54;99750.81;16105535;19;131723;-41
2023/10/31 01:45:46;;;;;;;3.40;0.85;;;;;;;19.61;52.45;99749.16;16109520;19;130254;-40
2023/10/31 01:51:09;;;;;;;5.70;1.27;;;;;;;19.59;52.24;99745.84;16110623;19;129524;-40
2023/10/31 01:56:31;;;;;;;1.65;0.88;;;;;;;19.57;52.40;99738.91;16101921;19;131761;-41
2023/10/31 02:01:56;;;;;;;0.85;0.70;;;;;;;19.57;52.54;99752.78;16110122;19;130037;-40
2023/10/31 02:07:18;;;;;;;1.73;0.77;;;;;;;19.55;52.44;99764.16;16111111;19;130478;-41
2023/10/31 02:12:40;;;;;;;1.73;0.73;;;;;;;19.53;52.79;99763.63;16110928;19;133779;-40
2023/10/31 02:18:02;;;;;;;1.48;0.93;;;;;;;19.52;52.80;99759.19;16108527;19;130046;-40
2023/10/31 02:23:24;;;;;;;3.25;1.00;;;;;;;19.50;52.81;99753.06;16105716;19;129508;-42
2023/10/31 02:28:46;;;;;;;2.38;0.60;;;;;;;19.48;52.70;99756.16;16122437;19;130539;-43
2023/10/31 02:34:07;;;;;;;3.10;0.82;;;;;;;19.47;52.52;99753.63;16119141;19;130162;-40
2023/10/31 02:39:29;;;;;;;1.30;0.90;;;;;;;19.46;52.73;99757.50;16119831;19;129529;-41
2023/10/31 02:44:51;;;;;;;2.50;0.85;;;;;;;19.44;52.79;99766.13;16120896;19;130866;-40
2023/10/31 02:50:13;;;;;;;1.10;0.88;;;;;;;19.43;52.66;99770.00;16120952;19;129391;-41
2023/10/31 02:55:35;;;;;;;1.92;0.77;;;;;;;19.42;52.53;99767.53;16121310;19;134075;-41
2023/10/31 03:00:57;;;;;;;1.02;0.80;;;;;;;19.42;52.75;99773.06;16119008;19;130525;-40
2023/10/31 03:06:19;;;;;;;1.65;0.60;;;;;;;19.41;52.70;99776.94;16120694;19;131310;-47
2023/10/31 03:11:41;;;;;;;0.98;0.50;;;;;;;19.38;52.94;99784.72;16119731;19;130174;-40
2023/10/31 03:17:03;;;;;;;2.05;0.88;;;;;;;19.38;53.00;99795.00;16121183;19;129840;-40
2023/10/31 03:22:25;;;;;;;1.88;0.85;;;;;;;19.37;52.74;99809.97;16118028;19;130275;-41
2023/10/31 03:27:47;;;;;;;1.60;0.80;;;;;;;19.35;52.50;99813.00;16114862;19;130749;-40
2023/10/31 03:33:09;;;;;;;1.95;0.60;;;;;;;19.34;52.70;99833.53;16115804;19;130784;-41
2023/10/31 03:38:31;;;;;;;0.77;0.60;;;;;;;19.34;52.53;99833.53;16115730;19;130893;-42
2023/10/31 03:43:53;;;;;;;1.55;0.75;;;;;;;19.33;52.51;99845.72;16113416;19;129766;-40
2023/10/31 03:49:15;;;;;;;1.48;0.80;;;;;;;19.32;52.56;99846.00;16115214;19;130681;-41
2023/10/31 03:54:37;;;;;;;1.88;0.70;;;;;;;19.32;52.73;99857.09;16116510;19;131207;-40
2023/10/31 04:00:00;;;;;;;1.95;0.60;;;;;;;19.30;52.75;99859.31;16115396;19;130610;-41
2023/10/31 04:05:22;;;;;;;0.80;0.60;;;;;;;19.30;52.56;99870.41;16113802;19;130570;-41
2023/10/31 04:10:44;;;;;;;1.77;0.65;;;;;;;19.28;52.57;99879.00;16119817;19;129897;-48
2023/10/31 04:16:07;;;;;;;0.88;0.50;;;;;;;19.27;52.51;99873.72;16109329;19;132194;-41
2023/10/31 04:21:29;;;;;;;1.83;0.68;;;;;;;19.27;52.88;99876.50;16113888;19;130538;-41
2023/10/31 04:26:51;;;;;;;1.35;0.60;;;;;;;19.24;52.60;99888.97;16119139;19;131152;-41
2023/10/31 04:32:13;;;;;;;1.65;0.57;;;;;;;19.23;52.88;99898.41;16111158;19;129507;-40
2023/10/31 04:37:35;;;;;;;1.08;0.50;;;;;;;19.22;52.44;99903.13;16115939;19;132619;-41
2023/10/31 04:42:57;;;;;;;1.60;0.60;;;;;;;19.22;52.39;99913.38;16112998;19;130099;-40
2023/10/31 04:48:19;;;;;;;1.27;0.50;;;;;;;19.20;52.79;99915.59;16110674;19;130558;-40
2023/10/31 04:53:41;;;;;;;0.60;0.50;;;;;;;19.19;52.35;99923.06;16110023;19;129983;-42
2023/10/31 04:59:03;;;;;;;0.57;0.40;;;;;;;19.17;52.47;99927.22;16111345;19;130817;-41
2023/10/31 05:04:26;;;;;;;2.25;0.50;;;;;;;19.17;52.77;99936.34;16111970;19;132236;-40
2023/10/31 05:09:48;;;;;;;1.05;0.55;;;;;;;19.17;52.91;99932.75;16115746;19;129105;-40
2023/10/31 05:15:10;;;;;;;0.32;0.30;;;;;;;19.15;52.53;99934.97;16114345;19;129421;-41
2023/10/31 05:20:32;;;;;;;1.30;0.47;;;;;;;19.14;52.82;99936.06;16112459;19;130939;-41
2023/10/31 05:25:55;;;;;;;1.10;0.52;;;;;;;19.13;52.88;99943.56;16107537;19;130216;-45
2023/10/31 05:31:17;;;;;;;1.88;0.52;;;;;;;19.12;52.55;99944.69;16109187;19;129762;-42
2023/10/31 05:36:39;;;;;;;0.55;0.50;;;;;;;19.12;52.77;99960.47;16107863;19;131276;-42
2023/10/31 05:42:01;;;;;;;0.93;0.55;;;;;;;19.10;52.43;99971.00;16106065;19;129409;-41
2023/10/31 05:47:23;;;;;;;0.75;0.57;;;;;;;19.09;52.76;99986.81;16109479;19;129730;-43
2023/10/31 05:52:45;;;;;;;0.70;0.47;;;;;;;19.08;52.79;99997.03;16107278;19;129851;-41
2023/10/31 05:58:07;;;;;;;1.15;0.60;;;;;;;19.08;52.32;100010.91;16103025;19;129460;-41
2023/10/31 06:03:29;;;;;;;1.20;0.57;;;;;;;19.06;52.89;100004.81;16102266;19;130030;-41
2023/10/31 06:08:51;;;;;;;0.60;0.50;;;;;;;19.07;52.41;100000.94;16103409;19;130777;-40
2023/10/31 06:14:13;;;;;;;0.73;0.50;;;;;;;19.05;52.77;100021.72;16097997;19;130430;-40
2023/10/31 06:19:38;;;;;;;0.40;0.40;;;;;;;19.05;53.01;100013.38;16101592;19;133136;-40
2023/10/31 06:25:00;;;;;;;3.67;0.73;;;;;;;19.08;52.64;100018.41;16107249;19;130100;-42
2023/10/31 06:30:24;;;;;;;0.77;0.30;;;;;;;19.12;52.70;100025.06;16102254;19;129742;-39
2023/10/31 06:35:46;;;;;;;1.05;0.40;;;;;;;19.14;52.34;100025.63;16108733;19;130500;-40
2023/10/31 06:41:09;;;;;;;1.45;0.50;;;;;;;19.16;52.41;100039.22;16102791;19;132044;-40
2023/10/31 06:46:31;;;;;;;2.88;0.80;;;;;;;19.16;52.15;100036.44;16101553;19;131293;-40
2023/10/31 06:51:53;;;;;;;2.17;0.65;;;;;;;19.14;52.17;100044.19;16104426;19;131201;-39
2023/10/31 06:57:16;;;;;;;3.13;0.75;;;;;;;19.13;51.86;100048.06;16101571;19;129989;-42
2023/10/31 07:02:38;;;;;;;2.85;0.65;;;;;;;19.11;52.00;100061.38;16102791;19;129476;-39
2023/10/31 07:08:00;;;;;;;1.33;0.60;;;;;;;19.08;51.87;100066.34;16101565;19;130330;-44
2023/10/31 07:13:22;;;;;;;19.13;1.83;;;;;;;19.07;52.23;100069.41;16116968;19;129511;-40
2023/10/31 07:18:44;;;;;;;5.70;0.60;;;;;;;19.08;51.91;100063.56;16120857;19;129924;-39
2023/10/31 07:24:08;;;;;;;1.42;0.50;;;;;;;19.06;51.92;100071.34;16118803;19;129679;-44
2023/10/31 07:29:30;;;;;;;3.57;0.70;;;;;;;19.05;51.99;100072.44;16120001;19;130578;-40
2023/10/31 07:34:52;;;;;;;1.25;0.57;;;;;;;19.05;51.91;100072.44;16118001;19;131686;-39
2023/10/31 07:40:15;;;;;;;1.25;0.60;;;;;;;19.04;51.92;100073.56;16112981;19;130642;-45
2023/10/31 07:45:37;;;;;;;1.45;0.50;;;;;;;19.02;52.08;100080.44;16120325;19;129667;-40
2023/10/31 07:50:59;;;;;;;6.15;0.90;;;;;;;19.01;52.09;100084.34;16113354;19;130449;-39
2023/10/31 07:56:23;;;;;;;4.20;0.60;;;;;;;19.01;52.23;100092.66;16116868;19;130977;-39
2023/10/31 08:01:48;;;;;;;2.13;0.90;;;;;;;18.99;52.12;100098.47;16125755;19;129990;-40
2023/10/31 08:07:13;;;;;;;1.40;0.47;;;;;;;18.99;51.97;100101.22;16112657;19;130719;-39
2023/10/31 08:12:35;;;;;;;5.30;0.98;;;;;;;18.98;52.10;100102.34;16114356;19;131076;-40
2023/10/31 08:17:57;;;;;;;1.60;0.60;;;;;;;18.99;51.95;100100.41;16115254;19;129897;-41
2023/10/31 08:23:19;;;;;;;1.92;0.60;;;;;;;18.98;52.06;100116.19;16117806;19;130663;-39
2023/10/31 08:28:41;;;;;;;1.73;0.47;;;;;;;18.96;52.20;100106.50;16117003;19;130266;-39
2023/10/31 08:34:03;;;;;;;5.53;0.85;;;;;;;18.95;52.31;100119.53;16115482;19;130760;-42
2023/10/31 08:39:26;;;;;;;1.20;0.80;;;;;;;18.93;52.15;100118.97;16113928;19;130527;-40
2023/10/31 08:44:50;;;;;;;2.10;1.17;;;;;;;18.89;51.82;100126.94;16112687;19;129726;-40
2023/10/31 08:50:13;;;;;;;3.25;1.15;;;;;;;18.90;51.71;100133.34;16109517;19;129441;-40
2023/10/31 08:55:35;;;;;;;2.80;0.98;;;;;;;18.91;51.95;100137.78;16107764;19;132026;-41
2023/10/31 09:00:57;;;;;;;1.73;0.90;;;;;;;18.92;51.65;100142.22;16111421;19;133864;-40
2023/10/31 09:06:19;;;;;;;2.90;1.08;;;;;;;;;;16111379;19;129802;-40
2023/10/31 09:11:41;;;;;;;5.28;1.25;;;;;;;18.94;51.64;100155.81;16113240;19;131712;-40
2023/10/31 09:17:03;;;;;;;4.35;0.98;;;;;;;18.95;51.62;100165.78;16110686;19;130497;-40
2023/10/31 09:22:25;;;;;;;2.05;0.80;;;;;;;18.94;51.66;100170.53;16105603;19;130113;-41
2023/10/31 09:27:47;;;;;;;1.48;0.65;;;;;;;18.97;51.99;100171.91;16112207;19;131133;-40
2023/10/31 09:33:09;;;;;;;1.73;0.75;;;;;;;18.98;51.59;100179.13;16108755;19;130269;-40
2023/10/31 09:38:31;;;;;;;2.10;0.70;;;;;;;18.97;51.91;100178.28;16113841;19;131665;-40
2023/10/31 09:43:54;;;;;;;2.25;0.93;;;;;;;18.98;51.96;100193.81;16114744;19;130118;-40
2023/10/31 09:49:16;;;;;;;2.05;0.90;;;;;;;18.99;51.95;100202.97;16109864;19;135644;-40
2023/10/31 09:54:41;;;;;;;2.70;0.90;;;;;;;18.98;51.63;100196.59;16110017;19;131789;-44
2023/10/31 10:00:06;;;;;;;3.90;1.10;;;;;;;18.98;51.37;100207.66;16114105;19;129753;-40
2023/10/31 10:05:31;;;;;;;2.05;0.77;;;;;;;18.98;51.33;100215.97;16108751;19;129141;-44
2023/10/31 10:10:53;;;;;;;1.80;1.13;;;;;;;19.00;51.29;100227.66;16105098;19;129426;-40
2023/10/31 10:16:29;;;;;;;2.83;0.90;;;;;;;19.01;51.45;100237.63;16102010;19;130381;-41
2023/10/31 10:21:56;;;;;;;3.33;0.87;;;;;;;18.98;51.82;100240.94;16103553;19;131584;-40
2023/10/31 10:27:19;;;;;;;1.02;0.63;;;;;;;18.96;51.48;100245.91;16112739;19;129937;-44
2023/10/31 10:32:41;;;;;;;1.30;0.68;;;;;;;18.95;51.38;100257.25;16112887;19;130115;-40
2023/10/31 10:38:15;;;;;;;2.45;0.80;;;;;;;18.95;51.63;100269.22;16109728;19;129787;-45
2023/10/31 10:43:39;;;;;;;3.08;0.88;;;;;;;18.94;51.41;100261.97;16112560;19;129646;-40
2023/10/31 10:49:05;;;;;;;1.42;0.95;;;;;;;18.96;51.58;100258.94;16122942;19;133353;-41
2023/10/31 10:54:46;;;;;;;1.65;0.60;;;;;;;18.95;51.70;100258.13;16124268;19;129448;-40
2023/10/31 11:00:09;;;;;;;1.20;0.85;;;;;;;;;;16123508;19;129724;-41
2023/10/31 11:05:32;;;;;;;0.77;0.70;;;;;;;18.93;51.38;100271.41;16124082;19;131937;-39
2023/10/31 11:10:55;;;;;;;2.65;0.85;;;;;;;18.93;51.36;100260.31;16119838;19;129543;-40
2023/10/31 11:16:30;;;;;;;1.13;0.80;;;;;;;18.92;51.70;100264.19;16119462;19;129723;-40
2023/10/31 11:22:00;;;;;;;1.73;0.70;;;;;;;18.90;51.59;100260.84;16120422;19;130780;-40
2023/10/31 11:27:22;;;;;;;1.98;0.77;;;;;;;18.90;51.62;100260.84;16120323;19;131109;-41
2023/10/31 11:32:54;;;;;;;4.72;0.80;;;;;;;18.91;51.59;100265.28;16122717;19;131262;-40
2023/10/31 11:38:16;;;;;;;1.27;0.70;;;;;;;18.88;51.60;100263.88;16121678;19;129457;-42
2023/10/31 11:43:40;;;;;;;4.15;0.90;;;;;;;18.90;51.44;100266.38;16120197;19;130144;-44
2023/10/31 11:49:05;;;;;;;1.90;0.73;;;;;;;18.87;51.79;100259.44;16121153;19;130354;-40
2023/10/31 11:54:27;;;;;;;1.07;0.67;;;;;;;18.90;51.31;100256.13;16118313;19;130103;-40
2023/10/31 11:59:49;;;;;;;1.77;0.52;;;;;;;18.92;51.16;100259.47;16119135;19;129729;-41
2023/10/31 12:05:13;;;;;;;2.13;0.93;;;;;;;18.93;51.35;100263.09;16115987;19;130394;-40
2023/10/31 12:10:35;;;;;;;0.93;0.70;;;;;;;18.91;51.53;100268.06;16117314;19;129573;-40
2023/10/31 12:15:57;;;;;;;2.08;0.68;;;;;;;18.89;51.48;100270.25;16119628;19;132354;-46
2023/10/31 12:21:18;;;;;;;1.77;0.70;;;;;;;18.89;51.58;100275.78;16112269;19;131029;-40
2023/10/31 12:26:41;;;;;;;2.30;0.68;;;;;;;18.88;51.14;100272.19;16112979;19;131373;-40
2023/10/31 12:32:03;;;;;;;3.35;0.80;;;;;;;18.86;50.65;100259.69;16112824;19;130347;-41
2023/10/31 12:37:25;;;;;;;1.80;0.70;;;;;;;18.92;50.21;100272.50;16119471;19;129835;-48
2023/10/31 12:42:49;;;;;;;2.70;0.85;;;;;;;18.97;49.94;100277.25;16113950;19;130243;-43
2023/10/31 12:48:12;;;;;;;3.72;1.10;;;;;;;19.00;49.82;100283.09;16114746;19;132243;-40
2023/10/31 12:53:34;;;;;;;4.22;1.00;;;;;;;19.01;50.00;100279.22;16117009;19;130069;-43
2023/10/31 12:58:58;;;;;;;2.17;0.80;;;;;;;19.02;49.61;100280.91;16111455;19;135835;-43
2023/10/31 13:04:26;;;;;;;2.72;1.13;;;;;;;19.03;49.66;100290.88;16115275;19;129936;-42
2023/10/31 13:09:48;;;;;;;6.75;1.45;;;;;;;19.07;49.71;100294.81;16108895;19;129686;-43
2023/10/31 13:15:10;;;;;;;1.50;0.70;;;;;;;19.13;49.67;100300.38;16105012;19;129897;-46
2023/10/31 13:20:32;;;;;;;1.63;0.88;;;;;;;19.24;49.60;100302.16;16107349;19;130233;-46
2023/10/31 13:25:54;;;;;;;2.83;1.17;;;;;;;19.47;49.09;100303.72;16109493;19;130621;-46
2023/10/31 13:31:17;;;;;;;4.35;1.10;;;;;;;19.75;48.51;100303.59;16112771;19;132666;-41
2023/10/31 13:36:39;;;;;;;2.88;0.95;;;;;;;20.03;47.86;100304.31;16112189;19;130376;-41
2023/10/31 13:42:02;;;;;;;27.88;2.17;;;;;;;20.23;48.27;100304.41;16110465;19;130658;-49
2023/10/31 13:47:24;;;;;;;15.30;1.75;;;;;;;20.38;47.91;100313.88;16106396;19;132062;-45
2023/10/31 13:52:46;;;;;;;17.52;2.33;;;;;;;20.46;47.39;100313.34;16108905;19;131090;-44
2023/10/31 13:58:08;;;;;;;9.20;1.70;;;;;;;20.47;47.68;100320.56;16094969;19;131137;-41
2023/10/31 14:03:30;;;;;;;14.07;1.35;;;;;;;20.43;47.89;100325.03;16101175;19;131225;-40
2023/10/31 14:08:52;;;;;;;8.73;1.13;;;;;;;20.38;47.81;100314.72;16103281;19;132275;-39
2023/10/31 14:14:14;;;;;;;5.80;0.98;;;;;;;20.33;47.78;100317.50;16101896;19;130602;-40
2023/10/31 14:19:36;;;;;;;6.82;1.30;;;;;;;20.24;48.18;100322.72;16106927;19;131296;-39
2023/10/31 14:24:58;;;;;;;6.70;1.20;;;;;;;20.19;48.40;100324.66;16107542;19;132281;-41
2023/10/31 14:30:20;;;;;;;5.47;1.08;;;;;;;20.13;48.58;100316.28;16110649;19;129703;-40
2023/10/31 14:35:42;;;;;;;9.57;1.30;;;;;;;20.09;48.87;100309.63;16109107;19;130450;-40
2023/10/31 14:41:04;;;;;;;11.13;1.90;;;;;;;20.07;49.15;100313.75;16104045;19;130400;-41
2023/10/31 14:46:27;;;;;;;20.13;1.58;;;;;;;20.02;49.00;100310.97;16098332;19;131378;-39
2023/10/31 14:51:49;;;;;;;15.80;1.63;;;;;;;20.01;49.30;100301.81;16099026;19;131179;-39
2023/10/31 14:57:11;;;;;;;14.93;1.83;;;;;;;19.98;49.59;100303.16;16102191;19;131995;-40
2023/10/31 15:02:34;;;;;;;18.50;2.25;;;;;;;20.01;49.39;100314.88;16098540;19;130961;-39
2023/10/31 15:08:00;;;;;;;24.48;1.83;;;;;;;20.16;49.18;100314.94;16100068;19;130368;-39
2023/10/31 15:13:22;;;;;;;22.08;2.10;;;;;;;20.42;48.98;100310.28;16105793;19;131060;-40
2023/10/31 15:18:44;;;;;;;24.50;2.40;;;;;;;20.68;48.83;100301.16;16101997;19;129906;-39
2023/10/31 15:24:09;;;;;;;45.90;4.68;;;;;;;20.86;48.09;100309.00;16102199;19;131226;-42
2023/10/31 15:29:31;;;;;;;47.47;3.87;;;;;;;21.02;48.23;100315.41;16104159;19;130716;-40
2023/10/31 15:34:53;;;;;;;45.47;3.67;;;;;;;21.16;48.40;100310.16;16118167;19;131051;-43
2023/10/31 15:40:15;;;;;;;35.00;4.13;;;;;;;21.28;48.23;100304.28;16115573;19;131375;-39
2023/10/31 15:45:40;;;;;;;37.90;3.65;;;;;;;21.41;47.86;100313.16;16117430;19;129811;-40
2023/10/31 15:51:03;;;;;;;50.50;4.22;;;;;;;21.50;47.86;100326.28;16110327;19;130927;-42
2023/10/31 15:56:25;;;;;;;51.08;3.85;;;;;;;21.59;48.02;100320.13;16116834;19;129675;-42
2023/10/31 16:01:48;;;;;;;47.22;3.53;;;;;;;21.65;47.58;100321.81;16115985;19;129483;-39
2023/10/31 16:07:12;;;;;;;39.75;3.10;;;;;;;21.73;47.90;100328.72;16103801;19;130286;-40
2023/10/31 16:12:34;;;;;;;32.13;3.40;;;;;;;21.75;47.15;100332.06;16113372;19;131243;-39
2023/10/31 16:17:56;;;;;;;27.05;2.92;;;;;;;21.74;47.29;100339.59;16109897;19;129797;-40
2023/10/31 16:23:20;;;;;;;18.08;2.63;;;;;;;21.70;47.63;100346.81;16112851;19;131014;-39
2023/10/31 16:28:42;;;;;;;27.50;3.63;;;;;;;21.66;47.50;100346.56;16113978;19;131167;-38
2023/10/31 16:34:04;;;;;;;19.65;2.42;;;;;;;21.64;47.30;100347.97;16106772;19;130914;-39
2023/10/31 16:39:26;;;;;;;16.67;2.53;;;;;;;21.66;47.35;100354.09;16115744;19;130298;-43
2023/10/31 16:44:48;;;;;;;15.80;2.25;;;;;;;21.72;46.91;100350.16;16109587;19;130163;-40
2023/10/31 16:50:10;;;;;;;15.15;1.48;;;;;;;21.79;47.33;100338.75;16107632;19;131300;-45
2023/10/31 16:55:32;;;;;;;9.57;1.88;;;;;;;21.85;46.62;100348.72;16116459;19;130938;-39
2023/10/31 17:00:54;;;;;;;12.55;1.70;;;;;;;21.91;46.82;100353.19;16115086;19;130189;-39
2023/10/31 17:06:17;;;;;;;20.80;2.33;;;;;;;21.92;46.84;100351.22;16108969;19;132611;-39
2023/10/31 17:11:39;;;;;;;20.40;2.22;;;;;;;21.89;47.42;100349.84;16110160;19;130731;-39
2023/10/31 17:17:01;;;;;;;8.77;1.88;;;;;;;21.85;47.19;100364.63;16111119;19;129951;-39
2023/10/31 17:22:25;;;;;;;10.48;2.35;;;;;;;21.79;47.46;100367.41;16114488;19;130340;-38
2023/10/31 17:27:48;;;;;;;9.95;1.83;;;;;;;21.75;47.78;100357.97;16113466;19;129555;-39
2023/10/31 17:33:13;;;;;;;9.15;1.67;;;;;;;21.71;47.33;100381.09;16110125;19;129264;-39
2023/10/31 17:38:35;;;;;;;12.85;1.80;;;;;;;21.66;47.91;100379.16;16110166;19;129549;-39
2023/10/31 17:43:57;;;;;;;7.75;1.90;;;;;;;21.60;47.90;100381.06;16112727;19;130310;-39
2023/10/31 17:49:20;;;;;;;11.55;2.00;;;;;;;21.56;47.84;100376.34;16104653;19;132789;-38
2023/10/31 17:54:42;;;;;;;11.85;2.00;;;;;;;21.50;48.21;100393.06;16109928;19;131285;-39
2023/10/31 18:00:05;;;;;;;13.85;1.90;;;;;;;21.47;48.44;100396.38;16101107;19;129678;-39
2023/10/31 18:05:29;;;;;;;16.67;2.40;;;;;;;21.48;48.87;100400.81;16108164;19;130805;-39
2023/10/31 18:10:51;;;;;;;10.65;1.55;;;;;;;21.51;48.80;100405.88;16105323;19;130209;-39
2023/10/31 18:16:15;;;;;;;12.68;1.58;;;;;;;21.56;48.74;100412.53;16095186;19;130952;-39
2023/10/31 18:21:37;;;;;;;6.05;1.60;;;;;;;21.57;48.96;100408.63;16097155;19;132681;-39
2023/10/31 18:27:02;;;;;;;20.10;2.10;;;;;;;21.60;48.64;100403.34;16101636;19;129253;-39
2023/10/31 18:32:24;;;;;;;22.83;2.63;;;;;;;21.61;48.53;100410.56;16101091;19;130416;-39
2023/10/31 18:37:46;;;;;;;11.82;1.55;;;;;;;21.62;48.69;100406.69;16105735;19;131622;-43
2023/10/31 18:43:08;;;;;;;15.77;1.80;;;;;;;21.61;48.99;100399.44;16102981;19;131058;-40
2023/10/31 18:48:30;;;;;;;18.88;2.38;;;;;;;21.58;48.76;100400.03;16077826;19;134686;-39
2023/10/31 18:53:52;;;;;;;18.77;2.15;;;;;;;21.57;48.54;100403.06;16107819;19;129712;-41
2023/10/31 18:59:13;;;;;;;13.48;1.67;;;;;;;21.55;48.72;100394.16;16106509;19;130928;-42
2023/10/31 19:04:35;;;;;;;14.93;2.08;;;;;;;21.56;49.02;100395.81;16103390;19;130704;-39
2023/10/31 19:09:57;;;;;;;13.65;1.73;;;;;;;21.58;48.44;100391.69;16120727;19;130028;-40
2023/10/31 19:15:19;;;;;;;15.90;1.73;;;;;;;21.62;48.35;100389.16;16119808;19;130697;-39
2023/10/31 19:20:41;;;;;;;13.82;1.83;;;;;;;21.64;48.62;100386.94;16114986;19;130376;-39
2023/10/31 19:26:03;;;;;;;6.78;1.42;;;;;;;21.64;48.47;100393.31;16114820;19;129951;-40
2023/10/31 19:31:25;;;;;;;9.82;1.90;;;;;;;21.63;48.72;100393.63;16118688;19;129787;-40
2023/10/31 19:36:47;;;;;;;15.02;2.10;;;;;;;21.60;48.79;100386.63;16119607;19;130054;-40
2023/10/31 19:42:09;;;;;;;16.23;1.95;;;;;;;21.55;48.58;100389.44;16111528;19;131545;-39
2023/10/31 19:47:32;;;;;;;11.20;2.08;;;;;;;21.51;48.97;100394.75;16111555;19;131147;-41
2023/10/31 19:52:54;;;;;;;16.98;2.00;;;;;;;21.46;49.59;100389.13;16117397;19;129812;-42
2023/10/31 19:58:18;;;;;;;12.23;2.22;;;;;;;21.42;50.28;100382.44;16116874;19;135092;-40
2023/10/31 20:03:40;;;;;;;14.68;2.38;;;;;;;21.35;50.02;100391.06;16110154;19;130486;-40
2023/10/31 20:09:03;;;;;;;6.32;1.63;;;;;;;21.29;50.09;100391.38;16107784;19;130333;-42
2023/10/31 20:14:25;;;;;;;8.45;2.25;;;;;;;21.22;49.98;100386.91;16091464;19;132895;-40
2023/10/31 20:19:47;;;;;;;25.13;2.65;;;;;;;21.17;50.34;100389.66;16103194;19;129689;-42
2023/10/31 20:25:09;;;;;;;7.13;2.15;;;;;;;21.13;50.85;100394.13;16104325;19;130182;-41
2023/10/31 20:30:34;;;;;;;14.25;2.42;;;;;;;21.09;50.82;100417.22;16112302;19;130509;-40
2023/10/31 20:35:56;;;;;;;8.38;1.80;;;;;;;21.04;51.59;100404.97;16111517;19;129911;-40
2023/10/31 20:41:17;;;;;;;8.13;2.20;;;;;;;21.10;52.23;100393.88;16108253;19;130700;-41
2023/10/31 20:46:40;;;;;;;5.70;1.80;;;;;;;21.20;52.06;100391.91;16112224;19;131052;-43
2023/10/31 20:52:02;;;;;;;14.25;2.13;;;;;;;21.33;52.32;100398.03;16116851;19;130349;-44
2023/10/31 20:57:24;;;;;;;8.95;1.63;;;;;;;21.41;52.08;100397.50;16112771;19;129644;-43
2023/10/31 21:02:48;;;;;;;7.78;1.90;;;;;;;21.48;52.57;100399.97;16112490;19;129621;-40
2023/10/31 21:08:10;;;;;;;8.82;1.77;;;;;;;21.55;52.07;100395.00;16117444;19;129688;-41
2023/10/31 21:13:32;;;;;;;8.00;2.22;;;;;;;21.60;52.31;100396.94;16113476;19;130384;-43
2023/10/31 21:18:54;;;;;;;6.57;1.83;;;;;;;21.59;52.20;100384.16;16104974;19;129850;-39
2023/10/31 21:24:16;;;;;;;4.88;1.52;;;;;;;21.58;52.81;100386.09;16103457;19;129689;-41
2023/10/31 21:29:38;;;;;;;4.93;1.42;;;;;;;21.53;52.94;100386.09;16109165;19;130365;-40
2023/10/31 21:35:00;;;;;;;17.80;1.80;;;;;;;21.48;52.96;100389.69;16101571;19;131159;-41
2023/10/31 21:40:22;;;;;;;6.90;1.70;;;;;;;21.42;52.74;100395.53;16111071;19;129800;-40
2023/10/31 21:45:44;;;;;;;5.10;1.40;;;;;;;21.33;53.37;100392.47;16110945;19;130001;-41
2023/10/31 21:51:06;;;;;;;8.48;2.00;;;;;;;21.26;53.34;100394.69;16111301;19;130097;-41
2023/10/31 21:56:28;;;;;;;6.00;1.70;;;;;;;21.18;53.60;100399.69;16112592;19;131044;-40
2023/10/31 22:01:53;;;;;;;9.25;1.98;;;;;;;21.11;53.50;100401.09;16112477;19;129469;-39
2023/10/31 22:07:15;;;;;;;8.57;1.75;;;;;;;21.02;53.67;100392.44;16115048;19;130142;-41
2023/10/31 22:12:37;;;;;;;4.03;1.42;;;;;;;20.93;53.51;100406.06;16105617;19;129836;-40
2023/10/31 22:17:59;;;;;;;7.63;1.85;;;;;;;20.86;53.76;100403.53;16107667;19;130392;-39
2023/10/31 22:23:21;;;;;;;8.73;1.77;;;;;;;20.80;53.47;100404.63;16105730;19;131349;-39
2023/10/31 22:28:43;;;;;;;5.05;1.60;;;;;;;20.73;53.53;100401.25;16107276;19;131421;-39
2023/10/31 22:34:05;;;;;;;3.50;1.60;;;;;;;20.67;53.78;100402.34;16108912;19;130774;-39
2023/10/31 22:39:27;;;;;;;4.35;1.27;;;;;;;20.63;54.04;100406.78;16114485;19;130618;-39
2023/10/31 22:44:49;;;;;;;5.15;1.60;;;;;;;20.56;53.81;100396.72;16124466;19;129855;-39
2023/10/31 22:50:11;;;;;;;5.43;1.50;;;;;;;20.51;54.11;100396.72;16121069;19;129578;-39
2023/10/31 22:55:33;;;;;;;4.68;1.20;;;;;;;20.46;54.08;100396.69;16124182;19;131212;-39
2023/10/31 23:00:55;;;;;;;4.65;1.50;;;;;;;20.42;54.08;100390.03;16126563;19;130154;-39
2023/10/31 23:06:18;;;;;;;4.40;1.30;;;;;;;20.38;54.06;100388.91;16123939;19;130614;-39
2023/10/31 23:11:40;;;;;;;6.03;1.60;;;;;;;20.35;53.97;100395.00;16121674;19;129198;-39
2023/10/31 23:17:02;;;;;;;4.60;1.60;;;;;;;20.32;53.96;100384.41;16123802;19;130996;-39
2023/10/31 23:22:26;;;;;;;2.63;1.20;;;;;;;20.27;54.22;100377.75;16117986;19;129918;-39
2023/10/31 23:27:48;;;;;;;2.45;1.15;;;;;;;20.24;53.83;100378.28;16124614;19;129122;-39
2023/10/31 23:33:10;;;;;;;2.97;1.15;;;;;;;20.21;54.31;100370.47;16122476;19;131982;-40
2023/10/31 23:38:31;;;;;;;2.05;0.85;;;;;;;20.19;53.99;100367.13;16118364;19;131149;-39
2023/10/31 23:43:53;;;;;;;4.72;1.65;;;;;;;20.16;54.08;100364.06;16120712;19;129784;-39
2023/10/31 23:49:15;;;;;;;3.28;1.02;;;;;;;20.13;54.10;100349.63;16117584;19;129984;-39
2023/10/31 23:54:37;;;;;;;2.88;1.08;;;;;;;20.11;54.02;100346.31;16116709;19;131323;-39
